sensor_id;sensor_type;location;lat;lon;timestamp;temperature;humidity
54260;DHT22;40172;53.022;7.012;2023-07-29T00:01:11;17.40;99.90
54260;DHT22;40172;53.022;7.012;2023-07-29T00:03:37;17.30;99.90
54260;DHT22;40172;53.022;7.012;2023-07-29T00:06:03;17.30;99.90
54260;DHT22;40172;53.022;7.012;2023-07-29T00:08:28;17.20;99.90
54260;DHT22;40172;53.022;7.012;2023-07-29T00:10:54;17.20;99.90
54260;DHT22;40172;53.022;7.012;2023-07-29T00:13:19;17.10;99.90
54260;DHT22;40172;53.022;7.012;2023-07-29T00:15:45;17.10;99.90
54260;DHT22;40172;53.022;7.012;2023-07-29T00:18:10;17.10;99.90
54260;DHT22;40172;53.022;7.012;2023-07-29T00:20:36;17.10;99.90
54260;DHT22;40172;53.022;7.012;2023-07-29T00:23:01;17.20;99.90
54260;DHT22;40172;53.022;7.012;2023-07-29T00:25:28;17.20;99.90
54260;DHT22;40172;53.022;7.012;2023-07-29T00:27:56;17.20;99.90
54260;DHT22;40172;53.022;7.012;2023-07-29T00:30:22;17.30;99.90
54260;DHT22;40172;53.022;7.012;2023-07-29T00:32:47;17.20;99.90
54260;DHT22;40172;53.022;7.012;2023-07-29T00:35:13;17.20;99.90
54260;DHT22;40172;53.022;7.012;2023-07-29T00:37:38;17.20;99.90
54260;DHT22;40172;53.022;7.012;2023-07-29T00:40:14;17.20;99.90
54260;DHT22;40172;53.022;7.012;2023-07-29T00:42:41;17.10;99.90
54260;DHT22;40172;53.022;7.012;2023-07-29T00:45:09;17.10;99.90
54260;DHT22;40172;53.022;7.012;2023-07-29T00:47:34;17.20;99.90
54260;DHT22;40172;53.022;7.012;2023-07-29T00:50:00;17.00;99.90
54260;DHT22;40172;53.022;7.012;2023-07-29T00:52:26;17.10;99.90
54260;DHT22;40172;53.022;7.012;2023-07-29T00:54:52;17.00;99.90
54260;DHT22;40172;53.022;7.012;2023-07-29T00:57:19;17.00;99.90
54260;DHT22;40172;53.022;7.012;2023-07-29T00:59:45;17.00;99.90
54260;DHT22;40172;53.022;7.012;2023-07-29T01:02:10;16.90;99.90
54260;DHT22;40172;53.022;7.012;2023-07-29T01:04:36;16.90;99.90
54260;DHT22;40172;53.022;7.012;2023-07-29T01:07:11;16.90;99.90
54260;DHT22;40172;53.022;7.012;2023-07-29T01:09:55;16.80;99.90
54260;DHT22;40172;53.022;7.012;2023-07-29T01:17:56;16.70;99.90
54260;DHT22;40172;53.022;7.012;2023-07-29T01:20:25;16.60;99.90
54260;DHT22;40172;53.022;7.012;2023-07-29T01:22:51;16.60;99.90
54260;DHT22;40172;53.022;7.012;2023-07-29T01:25:17;16.60;99.90
54260;DHT22;40172;53.022;7.012;2023-07-29T01:27:46;16.60;99.90
54260;DHT22;40172;53.022;7.012;2023-07-29T01:30:12;16.60;99.90
54260;DHT22;40172;53.022;7.012;2023-07-29T01:32:59;16.60;99.90
54260;DHT22;40172;53.022;7.012;2023-07-29T01:36:03;16.50;99.90
54260;DHT22;40172;53.022;7.012;2023-07-29T01:38:38;16.50;99.90
54260;DHT22;40172;53.022;7.012;2023-07-29T01:41:08;16.50;99.90
54260;DHT22;40172;53.022;7.012;2023-07-29T01:43:34;16.50;99.90
54260;DHT22;40172;53.022;7.012;2023-07-29T01:46:04;16.50;99.90
54260;DHT22;40172;53.022;7.012;2023-07-29T01:48:30;16.50;99.90
54260;DHT22;40172;53.022;7.012;2023-07-29T01:50:57;16.50;99.90
54260;DHT22;40172;53.022;7.012;2023-07-29T01:53:23;16.50;99.90
54260;DHT22;40172;53.022;7.012;2023-07-29T01:55:49;16.50;99.90
54260;DHT22;40172;53.022;7.012;2023-07-29T01:58:14;16.40;99.90
54260;DHT22;40172;53.022;7.012;2023-07-29T02:00:40;16.40;99.90
54260;DHT22;40172;53.022;7.012;2023-07-29T02:03:06;16.40;99.90
54260;DHT22;40172;53.022;7.012;2023-07-29T02:05:31;16.40;99.90
54260;DHT22;40172;53.022;7.012;2023-07-29T02:07:57;16.40;99.90
54260;DHT22;40172;53.022;7.012;2023-07-29T02:10:22;16.40;99.90
54260;DHT22;40172;53.022;7.012;2023-07-29T02:12:48;16.40;99.90
54260;DHT22;40172;53.022;7.012;2023-07-29T02:15:13;16.40;99.90
54260;DHT22;40172;53.022;7.012;2023-07-29T02:17:41;16.40;99.90
54260;DHT22;40172;53.022;7.012;2023-07-29T02:20:07;16.40;99.90
54260;DHT22;40172;53.022;7.012;2023-07-29T02:22:33;16.50;99.90
54260;DHT22;40172;53.022;7.012;2023-07-29T02:24:59;16.40;99.90
54260;DHT22;40172;53.022;7.012;2023-07-29T02:27:25;16.40;99.90
54260;DHT22;40172;53.022;7.012;2023-07-29T02:29:52;16.50;99.90
54260;DHT22;40172;53.022;7.012;2023-07-29T02:32:18;16.50;99.90
54260;DHT22;40172;53.022;7.012;2023-07-29T02:34:44;16.40;99.90
54260;DHT22;40172;53.022;7.012;2023-07-29T02:37:10;16.50;99.90
54260;DHT22;40172;53.022;7.012;2023-07-29T02:39:36;16.50;99.90
54260;DHT22;40172;53.022;7.012;2023-07-29T02:42:02;16.50;99.90
54260;DHT22;40172;53.022;7.012;2023-07-29T02:44:28;16.60;99.90
54260;DHT22;40172;53.022;7.012;2023-07-29T02:46:53;16.50;99.90
54260;DHT22;40172;53.022;7.012;2023-07-29T02:49:21;16.60;99.90
54260;DHT22;40172;53.022;7.012;2023-07-29T02:51:47;16.50;99.90
54260;DHT22;40172;53.022;7.012;2023-07-29T02:54:12;16.50;99.90
54260;DHT22;40172;53.022;7.012;2023-07-29T02:56:38;16.60;99.90
54260;DHT22;40172;53.022;7.012;2023-07-29T02:59:03;16.50;99.90
54260;DHT22;40172;53.022;7.012;2023-07-29T03:01:30;16.50;99.90
54260;DHT22;40172;53.022;7.012;2023-07-29T03:03:56;16.50;99.90
54260;DHT22;40172;53.022;7.012;2023-07-29T03:06:21;16.50;99.90
54260;DHT22;40172;53.022;7.012;2023-07-29T03:08:47;16.50;99.90
54260;DHT22;40172;53.022;7.012;2023-07-29T03:11:13;16.50;99.90
54260;DHT22;40172;53.022;7.012;2023-07-29T03:13:39;16.50;99.90
54260;DHT22;40172;53.022;7.012;2023-07-29T03:16:10;16.50;99.90
54260;DHT22;40172;53.022;7.012;2023-07-29T03:18:36;16.50;99.90
54260;DHT22;40172;53.022;7.012;2023-07-29T03:21:02;16.50;99.90
54260;DHT22;40172;53.022;7.012;2023-07-29T03:23:29;16.50;99.90
54260;DHT22;40172;53.022;7.012;2023-07-29T03:25:59;16.60;99.90
54260;DHT22;40172;53.022;7.012;2023-07-29T03:28:32;16.60;99.90
54260;DHT22;40172;53.022;7.012;2023-07-29T03:30:58;16.60;99.90
54260;DHT22;40172;53.022;7.012;2023-07-29T03:33:25;16.60;99.90
54260;DHT22;40172;53.022;7.012;2023-07-29T03:35:51;16.60;99.90
54260;DHT22;40172;53.022;7.012;2023-07-29T03:38:17;16.60;99.90
54260;DHT22;40172;53.022;7.012;2023-07-29T03:40:43;16.60;99.90
54260;DHT22;40172;53.022;7.012;2023-07-29T03:43:11;16.60;99.90
54260;DHT22;40172;53.022;7.012;2023-07-29T03:45:37;16.50;99.90
54260;DHT22;40172;53.022;7.012;2023-07-29T03:48:04;16.60;99.90
54260;DHT22;40172;53.022;7.012;2023-07-29T03:50:30;16.50;99.90
54260;DHT22;40172;53.022;7.012;2023-07-29T03:52:56;16.50;99.90
54260;DHT22;40172;53.022;7.012;2023-07-29T03:55:22;16.40;99.90
54260;DHT22;40172;53.022;7.012;2023-07-29T03:57:48;16.50;99.90
54260;DHT22;40172;53.022;7.012;2023-07-29T04:00:14;16.40;99.90
54260;DHT22;40172;53.022;7.012;2023-07-29T04:02:40;16.50;99.90
54260;DHT22;40172;53.022;7.012;2023-07-29T04:05:06;16.40;99.90
54260;DHT22;40172;53.022;7.012;2023-07-29T04:07:34;16.40;99.90
54260;DHT22;40172;53.022;7.012;2023-07-29T04:10:00;16.40;99.90
54260;DHT22;40172;53.022;7.012;2023-07-29T04:12:26;16.30;99.90
54260;DHT22;40172;53.022;7.012;2023-07-29T04:14:52;16.30;99.90
54260;DHT22;40172;53.022;7.012;2023-07-29T04:17:17;16.30;99.90
54260;DHT22;40172;53.022;7.012;2023-07-29T04:19:43;16.30;99.90
54260;DHT22;40172;53.022;7.012;2023-07-29T04:22:09;16.30;99.90
54260;DHT22;40172;53.022;7.012;2023-07-29T04:24:34;16.30;99.90
54260;DHT22;40172;53.022;7.012;2023-07-29T04:27:00;16.30;99.90
54260;DHT22;40172;53.022;7.012;2023-07-29T04:29:25;16.40;99.90
54260;DHT22;40172;53.022;7.012;2023-07-29T04:31:51;16.40;99.90
54260;DHT22;40172;53.022;7.012;2023-07-29T04:34:18;16.40;99.90
54260;DHT22;40172;53.022;7.012;2023-07-29T04:36:44;16.40;99.90
54260;DHT22;40172;53.022;7.012;2023-07-29T04:39:10;16.40;99.90
54260;DHT22;40172;53.022;7.012;2023-07-29T04:41:36;16.50;99.90
54260;DHT22;40172;53.022;7.012;2023-07-29T04:44:01;16.50;99.90
54260;DHT22;40172;53.022;7.012;2023-07-29T04:46:27;16.50;99.90
54260;DHT22;40172;53.022;7.012;2023-07-29T04:48:52;16.50;99.90
54260;DHT22;40172;53.022;7.012;2023-07-29T04:51:18;16.60;99.90
54260;DHT22;40172;53.022;7.012;2023-07-29T04:53:44;16.70;99.90
54260;DHT22;40172;53.022;7.012;2023-07-29T04:56:09;16.70;99.90
54260;DHT22;40172;53.022;7.012;2023-07-29T04:58:35;16.80;99.90
54260;DHT22;40172;53.022;7.012;2023-07-29T05:01:04;16.90;99.90
54260;DHT22;40172;53.022;7.012;2023-07-29T05:03:30;17.00;99.90
54260;DHT22;40172;53.022;7.012;2023-07-29T05:05:56;17.00;99.90
54260;DHT22;40172;53.022;7.012;2023-07-29T05:08:22;17.00;99.90
54260;DHT22;40172;53.022;7.012;2023-07-29T05:10:52;17.80;99.90
54260;DHT22;40172;53.022;7.012;2023-07-29T05:13:18;17.10;99.90
54260;DHT22;40172;53.022;7.012;2023-07-29T05:15:44;17.10;99.90
54260;DHT22;40172;53.022;7.012;2023-07-29T05:18:09;17.10;99.90
54260;DHT22;40172;53.022;7.012;2023-07-29T05:20:35;17.00;99.90
54260;DHT22;40172;53.022;7.012;2023-07-29T05:23:01;17.10;99.90
54260;DHT22;40172;53.022;7.012;2023-07-29T05:25:27;16.50;99.90
54260;DHT22;40172;53.022;7.012;2023-07-29T05:27:52;17.10;99.90
54260;DHT22;40172;53.022;7.012;2023-07-29T05:30:19;17.10;99.90
54260;DHT22;40172;53.022;7.012;2023-07-29T05:32:44;17.10;99.90
54260;DHT22;40172;53.022;7.012;2023-07-29T05:35:10;17.10;99.90
54260;DHT22;40172;53.022;7.012;2023-07-29T05:37:39;17.10;99.90
54260;DHT22;40172;53.022;7.012;2023-07-29T05:40:08;17.10;99.90
54260;DHT22;40172;53.022;7.012;2023-07-29T05:42:34;17.10;99.90
54260;DHT22;40172;53.022;7.012;2023-07-29T05:45:00;17.10;99.90
54260;DHT22;40172;53.022;7.012;2023-07-29T05:47:26;17.10;99.90
54260;DHT22;40172;53.022;7.012;2023-07-29T05:49:52;17.20;99.90
54260;DHT22;40172;53.022;7.012;2023-07-29T05:52:18;17.20;99.90
54260;DHT22;40172;53.022;7.012;2023-07-29T05:54:44;17.20;99.90
54260;DHT22;40172;53.022;7.012;2023-07-29T05:57:11;17.30;99.90
54260;DHT22;40172;53.022;7.012;2023-07-29T05:59:36;17.40;99.90
54260;DHT22;40172;53.022;7.012;2023-07-29T06:02:02;17.40;99.90
54260;DHT22;40172;53.022;7.012;2023-07-29T06:04:27;17.40;99.90
54260;DHT22;40172;53.022;7.012;2023-07-29T06:06:53;17.50;99.90
54260;DHT22;40172;53.022;7.012;2023-07-29T06:09:21;17.50;99.90
54260;DHT22;40172;53.022;7.012;2023-07-29T06:11:47;17.50;99.90
54260;DHT22;40172;53.022;7.012;2023-07-29T06:14:12;17.50;99.90
54260;DHT22;40172;53.022;7.012;2023-07-29T06:16:38;17.60;99.90
54260;DHT22;40172;53.022;7.012;2023-07-29T06:19:03;17.60;99.90
54260;DHT22;40172;53.022;7.012;2023-07-29T06:21:29;17.60;99.90
54260;DHT22;40172;53.022;7.012;2023-07-29T06:23:54;17.60;99.90
54260;DHT22;40172;53.022;7.012;2023-07-29T06:26:20;17.70;99.90
54260;DHT22;40172;53.022;7.012;2023-07-29T06:28:45;17.70;99.90
54260;DHT22;40172;53.022;7.012;2023-07-29T06:31:11;17.80;99.90
54260;DHT22;40172;53.022;7.012;2023-07-29T06:33:36;17.90;99.90
54260;DHT22;40172;53.022;7.012;2023-07-29T06:36:02;18.00;99.90
54260;DHT22;40172;53.022;7.012;2023-07-29T06:38:28;18.10;99.90
54260;DHT22;40172;53.022;7.012;2023-07-29T06:40:53;18.20;99.90
54260;DHT22;40172;53.022;7.012;2023-07-29T06:43:19;18.20;99.90
54260;DHT22;40172;53.022;7.012;2023-07-29T06:45:44;18.30;99.90
54260;DHT22;40172;53.022;7.012;2023-07-29T06:48:10;18.40;99.90
54260;DHT22;40172;53.022;7.012;2023-07-29T06:50:36;18.40;99.90
54260;DHT22;40172;53.022;7.012;2023-07-29T06:53:01;18.40;99.90
54260;DHT22;40172;53.022;7.012;2023-07-29T06:55:27;18.50;99.90
54260;DHT22;40172;53.022;7.012;2023-07-29T06:57:52;18.60;99.90
54260;DHT22;40172;53.022;7.012;2023-07-29T07:00:18;18.70;99.90
54260;DHT22;40172;53.022;7.012;2023-07-29T07:02:43;19.00;99.90
54260;DHT22;40172;53.022;7.012;2023-07-29T07:05:09;18.80;99.90
54260;DHT22;40172;53.022;7.012;2023-07-29T07:07:35;18.80;99.90
54260;DHT22;40172;53.022;7.012;2023-07-29T07:10:00;18.90;99.90
54260;DHT22;40172;53.022;7.012;2023-07-29T07:12:26;19.00;99.90
54260;DHT22;40172;53.022;7.012;2023-07-29T07:14:51;19.10;99.90
54260;DHT22;40172;53.022;7.012;2023-07-29T07:17:17;19.30;99.90
54260;DHT22;40172;53.022;7.012;2023-07-29T07:19:43;19.40;99.90
54260;DHT22;40172;53.022;7.012;2023-07-29T07:22:09;19.60;99.90
54260;DHT22;40172;53.022;7.012;2023-07-29T07:24:35;19.70;99.90
54260;DHT22;40172;53.022;7.012;2023-07-29T07:27:02;19.60;99.90
54260;DHT22;40172;53.022;7.012;2023-07-29T07:29:27;19.60;99.90
54260;DHT22;40172;53.022;7.012;2023-07-29T07:31:54;19.70;99.90
54260;DHT22;40172;53.022;7.012;2023-07-29T07:34:23;19.80;99.90
54260;DHT22;40172;53.022;7.012;2023-07-29T07:36:49;19.80;99.90
54260;DHT22;40172;53.022;7.012;2023-07-29T07:39:15;19.80;99.90
54260;DHT22;40172;53.022;7.012;2023-07-29T07:41:41;19.80;99.90
54260;DHT22;40172;53.022;7.012;2023-07-29T07:44:07;19.70;99.90
54260;DHT22;40172;53.022;7.012;2023-07-29T07:46:33;19.60;99.90
54260;DHT22;40172;53.022;7.012;2023-07-29T07:49:02;19.60;99.90
54260;DHT22;40172;53.022;7.012;2023-07-29T07:51:27;19.70;99.90
54260;DHT22;40172;53.022;7.012;2023-07-29T07:53:53;19.80;99.90
54260;DHT22;40172;53.022;7.012;2023-07-29T07:56:18;20.10;99.90
54260;DHT22;40172;53.022;7.012;2023-07-29T07:58:44;20.30;99.90
54260;DHT22;40172;53.022;7.012;2023-07-29T08:01:11;20.50;99.90
54260;DHT22;40172;53.022;7.012;2023-07-29T08:03:36;20.50;99.90
54260;DHT22;40172;53.022;7.012;2023-07-29T08:06:02;20.50;99.90
54260;DHT22;40172;53.022;7.012;2023-07-29T08:08:28;20.40;99.90
54260;DHT22;40172;53.022;7.012;2023-07-29T08:10:54;20.30;99.90
54260;DHT22;40172;53.022;7.012;2023-07-29T08:13:21;20.20;99.90
54260;DHT22;40172;53.022;7.012;2023-07-29T08:15:51;20.10;99.90
54260;DHT22;40172;53.022;7.012;2023-07-29T08:18:17;20.20;99.90
54260;DHT22;40172;53.022;7.012;2023-07-29T08:20:57;20.20;99.90
54260;DHT22;40172;53.022;7.012;2023-07-29T08:23:30;20.40;99.90
54260;DHT22;40172;53.022;7.012;2023-07-29T08:25:58;20.70;99.90
54260;DHT22;40172;53.022;7.012;2023-07-29T08:28:29;20.50;99.90
54260;DHT22;40172;53.022;7.012;2023-07-29T08:30:55;20.50;99.90
54260;DHT22;40172;53.022;7.012;2023-07-29T08:33:20;20.40;99.90
54260;DHT22;40172;53.022;7.012;2023-07-29T08:35:46;20.40;99.90
54260;DHT22;40172;53.022;7.012;2023-07-29T08:38:11;20.40;99.90
54260;DHT22;40172;53.022;7.012;2023-07-29T08:40:42;20.40;99.90
54260;DHT22;40172;53.022;7.012;2023-07-29T08:43:11;20.40;99.90
54260;DHT22;40172;53.022;7.012;2023-07-29T08:45:38;20.50;99.90
54260;DHT22;40172;53.022;7.012;2023-07-29T08:48:08;20.60;99.90
54260;DHT22;40172;53.022;7.012;2023-07-29T08:50:36;20.70;99.90
54260;DHT22;40172;53.022;7.012;2023-07-29T08:53:04;20.80;99.90
54260;DHT22;40172;53.022;7.012;2023-07-29T08:55:31;20.70;99.90
54260;DHT22;40172;53.022;7.012;2023-07-29T08:57:58;20.70;99.90
54260;DHT22;40172;53.022;7.012;2023-07-29T09:00:25;20.80;99.90
54260;DHT22;40172;53.022;7.012;2023-07-29T09:02:51;21.00;99.90
54260;DHT22;40172;53.022;7.012;2023-07-29T09:05:17;21.10;99.90
54260;DHT22;40172;53.022;7.012;2023-07-29T09:07:44;21.20;99.90
54260;DHT22;40172;53.022;7.012;2023-07-29T09:10:13;21.10;99.90
54260;DHT22;40172;53.022;7.012;2023-07-29T09:12:39;20.90;99.90
54260;DHT22;40172;53.022;7.012;2023-07-29T09:15:05;20.70;99.90
54260;DHT22;40172;53.022;7.012;2023-07-29T09:17:32;20.60;99.90
54260;DHT22;40172;53.022;7.012;2023-07-29T09:19:58;20.40;99.90
54260;DHT22;40172;53.022;7.012;2023-07-29T09:22:24;20.50;99.90
54260;DHT22;40172;53.022;7.012;2023-07-29T09:24:52;20.30;99.90
54260;DHT22;40172;53.022;7.012;2023-07-29T09:27:27;20.50;99.90
54260;DHT22;40172;53.022;7.012;2023-07-29T09:29:54;20.90;99.90
54260;DHT22;40172;53.022;7.012;2023-07-29T09:32:24;21.20;99.90
54260;DHT22;40172;53.022;7.012;2023-07-29T09:34:50;21.90;99.90
54260;DHT22;40172;53.022;7.012;2023-07-29T09:37:25;21.50;99.90
54260;DHT22;40172;53.022;7.012;2023-07-29T09:39:51;21.40;99.90
54260;DHT22;40172;53.022;7.012;2023-07-29T09:42:19;21.20;99.90
54260;DHT22;40172;53.022;7.012;2023-07-29T09:44:45;21.10;99.90
54260;DHT22;40172;53.022;7.012;2023-07-29T09:47:22;21.00;99.90
54260;DHT22;40172;53.022;7.012;2023-07-29T09:49:48;21.10;99.90
54260;DHT22;40172;53.022;7.012;2023-07-29T09:52:18;21.40;99.90
54260;DHT22;40172;53.022;7.012;2023-07-29T09:54:44;21.50;99.90
54260;DHT22;40172;53.022;7.012;2023-07-29T09:57:14;21.70;99.90
54260;DHT22;40172;53.022;7.012;2023-07-29T09:59:40;21.90;99.90
54260;DHT22;40172;53.022;7.012;2023-07-29T10:02:13;22.10;99.90
54260;DHT22;40172;53.022;7.012;2023-07-29T10:04:44;22.20;99.90
54260;DHT22;40172;53.022;7.012;2023-07-29T10:07:11;22.20;99.90
54260;DHT22;40172;53.022;7.012;2023-07-29T10:09:37;22.20;99.90
54260;DHT22;40172;53.022;7.012;2023-07-29T10:12:06;22.20;99.90
54260;DHT22;40172;53.022;7.012;2023-07-29T10:14:31;22.30;99.90
54260;DHT22;40172;53.022;7.012;2023-07-29T10:16:57;22.80;99.90
54260;DHT22;40172;53.022;7.012;2023-07-29T10:19:25;23.00;99.90
54260;DHT22;40172;53.022;7.012;2023-07-29T10:21:51;23.50;99.90
54260;DHT22;40172;53.022;7.012;2023-07-29T10:24:19;22.60;99.90
54260;DHT22;40172;53.022;7.012;2023-07-29T10:26:50;22.70;99.90
54260;DHT22;40172;53.022;7.012;2023-07-29T10:29:19;22.90;99.90
54260;DHT22;40172;53.022;7.012;2023-07-29T10:31:47;22.70;99.90
54260;DHT22;40172;53.022;7.012;2023-07-29T10:34:13;22.70;99.90
54260;DHT22;40172;53.022;7.012;2023-07-29T10:36:40;22.70;99.90
54260;DHT22;40172;53.022;7.012;2023-07-29T10:39:07;22.80;99.90
54260;DHT22;40172;53.022;7.012;2023-07-29T10:41:55;22.90;99.90
54260;DHT22;40172;53.022;7.012;2023-07-29T10:47:27;23.50;99.90
54260;DHT22;40172;53.022;7.012;2023-07-29T10:49:55;23.30;99.90
54260;DHT22;40172;53.022;7.012;2023-07-29T10:52:30;23.00;99.90
54260;DHT22;40172;53.022;7.012;2023-07-29T10:54:56;22.80;99.90
54260;DHT22;40172;53.022;7.012;2023-07-29T10:57:38;22.70;99.90
54260;DHT22;40172;53.022;7.012;2023-07-29T11:00:06;23.50;99.90
54260;DHT22;40172;53.022;7.012;2023-07-29T11:02:35;23.10;99.90
54260;DHT22;40172;53.022;7.012;2023-07-29T11:05:28;23.10;99.90
54260;DHT22;40172;53.022;7.012;2023-07-29T11:08:16;23.20;99.90
54260;DHT22;40172;53.022;7.012;2023-07-29T11:10:43;23.10;99.90
54260;DHT22;40172;53.022;7.012;2023-07-29T11:13:10;23.10;99.90
54260;DHT22;40172;53.022;7.012;2023-07-29T11:15:38;22.80;99.90
54260;DHT22;40172;53.022;7.012;2023-07-29T11:18:05;22.70;99.90
54260;DHT22;40172;53.022;7.012;2023-07-29T11:20:32;22.60;99.90
54260;DHT22;40172;53.022;7.012;2023-07-29T11:23:00;22.40;99.90
54260;DHT22;40172;53.022;7.012;2023-07-29T11:25:27;22.30;99.90
54260;DHT22;40172;53.022;7.012;2023-07-29T11:27:55;22.30;99.90
54260;DHT22;40172;53.022;7.012;2023-07-29T11:30:21;22.30;99.90
54260;DHT22;40172;53.022;7.012;2023-07-29T11:32:48;22.30;99.90
54260;DHT22;40172;53.022;7.012;2023-07-29T11:35:16;22.20;99.90
54260;DHT22;40172;53.022;7.012;2023-07-29T11:37:44;22.00;99.90
54260;DHT22;40172;53.022;7.012;2023-07-29T11:40:22;21.90;99.90
54260;DHT22;40172;53.022;7.012;2023-07-29T11:42:50;21.70;99.90
54260;DHT22;40172;53.022;7.012;2023-07-29T11:45:16;21.60;99.90
54260;DHT22;40172;53.022;7.012;2023-07-29T11:47:42;21.40;99.90
54260;DHT22;40172;53.022;7.012;2023-07-29T11:50:09;21.10;99.90
54260;DHT22;40172;53.022;7.012;2023-07-29T11:52:40;20.80;99.90
54260;DHT22;40172;53.022;7.012;2023-07-29T11:55:06;20.60;99.90
54260;DHT22;40172;53.022;7.012;2023-07-29T11:57:39;20.50;99.90
54260;DHT22;40172;53.022;7.012;2023-07-29T12:00:07;20.40;99.90
54260;DHT22;40172;53.022;7.012;2023-07-29T12:02:38;20.40;99.90
54260;DHT22;40172;53.022;7.012;2023-07-29T12:05:08;20.70;99.90
54260;DHT22;40172;53.022;7.012;2023-07-29T12:07:34;21.00;99.90
54260;DHT22;40172;53.022;7.012;2023-07-29T12:10:01;21.30;99.90
54260;DHT22;40172;53.022;7.012;2023-07-29T12:12:28;21.70;99.90
54260;DHT22;40172;53.022;7.012;2023-07-29T12:14:55;21.90;99.90
54260;DHT22;40172;53.022;7.012;2023-07-29T12:17:20;21.90;99.90
54260;DHT22;40172;53.022;7.012;2023-07-29T12:19:46;21.90;99.90
54260;DHT22;40172;53.022;7.012;2023-07-29T12:22:11;22.00;99.90
54260;DHT22;40172;53.022;7.012;2023-07-29T12:24:40;22.10;99.90
54260;DHT22;40172;53.022;7.012;2023-07-29T12:27:11;22.10;99.90
54260;DHT22;40172;53.022;7.012;2023-07-29T12:29:42;22.30;99.90
54260;DHT22;40172;53.022;7.012;2023-07-29T12:32:08;22.90;99.90
54260;DHT22;40172;53.022;7.012;2023-07-29T12:34:35;22.50;99.90
54260;DHT22;40172;53.022;7.012;2023-07-29T12:37:03;22.50;99.90
54260;DHT22;40172;53.022;7.012;2023-07-29T12:39:31;22.50;99.90
54260;DHT22;40172;53.022;7.012;2023-07-29T12:41:59;22.50;99.90
54260;DHT22;40172;53.022;7.012;2023-07-29T12:44:29;22.50;99.90
54260;DHT22;40172;53.022;7.012;2023-07-29T12:46:55;22.50;99.90
54260;DHT22;40172;53.022;7.012;2023-07-29T12:49:21;22.70;99.90
54260;DHT22;40172;53.022;7.012;2023-07-29T12:51:47;22.90;99.90
54260;DHT22;40172;53.022;7.012;2023-07-29T12:54:13;22.90;99.90
54260;DHT22;40172;53.022;7.012;2023-07-29T12:56:39;22.90;99.90
54260;DHT22;40172;53.022;7.012;2023-07-29T12:59:05;23.20;99.90
54260;DHT22;40172;53.022;7.012;2023-07-29T13:01:30;22.80;99.90
54260;DHT22;40172;53.022;7.012;2023-07-29T13:03:56;22.80;99.90
54260;DHT22;40172;53.022;7.012;2023-07-29T13:06:22;22.70;99.90
54260;DHT22;40172;53.022;7.012;2023-07-29T13:08:48;22.70;99.90
54260;DHT22;40172;53.022;7.012;2023-07-29T13:11:14;22.50;99.90
54260;DHT22;40172;53.022;7.012;2023-07-29T13:13:40;23.20;99.90
54260;DHT22;40172;53.022;7.012;2023-07-29T13:16:06;22.60;99.90
54260;DHT22;40172;53.022;7.012;2023-07-29T13:18:32;22.60;99.90
54260;DHT22;40172;53.022;7.012;2023-07-29T13:20:58;22.60;99.90
54260;DHT22;40172;53.022;7.012;2023-07-29T13:23:26;22.50;99.90
54260;DHT22;40172;53.022;7.012;2023-07-29T13:25:52;22.50;99.90
54260;DHT22;40172;53.022;7.012;2023-07-29T13:28:18;22.50;99.90
54260;DHT22;40172;53.022;7.012;2023-07-29T13:30:44;22.60;99.90
54260;DHT22;40172;53.022;7.012;2023-07-29T13:33:10;22.60;99.90
54260;DHT22;40172;53.022;7.012;2023-07-29T13:35:36;22.70;99.90
54260;DHT22;40172;53.022;7.012;2023-07-29T13:38:02;22.70;99.90
54260;DHT22;40172;53.022;7.012;2023-07-29T13:40:27;22.60;99.90
54260;DHT22;40172;53.022;7.012;2023-07-29T13:42:54;22.50;99.90
54260;DHT22;40172;53.022;7.012;2023-07-29T13:45:20;22.40;99.90
54260;DHT22;40172;53.022;7.012;2023-07-29T13:47:45;22.80;99.90
54260;DHT22;40172;53.022;7.012;2023-07-29T13:50:11;22.60;99.90
54260;DHT22;40172;53.022;7.012;2023-07-29T13:52:37;22.60;99.90
54260;DHT22;40172;53.022;7.012;2023-07-29T13:55:04;22.80;99.90
54260;DHT22;40172;53.022;7.012;2023-07-29T13:57:30;22.90;99.90
54260;DHT22;40172;53.022;7.012;2023-07-29T13:59:55;23.00;99.90
54260;DHT22;40172;53.022;7.012;2023-07-29T14:02:21;23.00;99.90
54260;DHT22;40172;53.022;7.012;2023-07-29T14:04:47;22.90;99.90
54260;DHT22;40172;53.022;7.012;2023-07-29T14:07:12;22.80;99.90
54260;DHT22;40172;53.022;7.012;2023-07-29T14:09:38;22.60;99.90
54260;DHT22;40172;53.022;7.012;2023-07-29T14:12:04;22.50;99.90
54260;DHT22;40172;53.022;7.012;2023-07-29T14:14:30;22.30;99.90
54260;DHT22;40172;53.022;7.012;2023-07-29T14:16:56;22.30;99.90
54260;DHT22;40172;53.022;7.012;2023-07-29T14:19:22;22.20;99.90
54260;DHT22;40172;53.022;7.012;2023-07-29T14:21:48;22.20;99.90
54260;DHT22;40172;53.022;7.012;2023-07-29T14:24:14;22.40;99.90
54260;DHT22;40172;53.022;7.012;2023-07-29T14:26:41;22.40;99.90
54260;DHT22;40172;53.022;7.012;2023-07-29T14:29:06;22.50;99.90
54260;DHT22;40172;53.022;7.012;2023-07-29T14:31:32;22.70;99.90
54260;DHT22;40172;53.022;7.012;2023-07-29T14:33:58;22.90;99.90
54260;DHT22;40172;53.022;7.012;2023-07-29T14:36:23;23.00;99.90
54260;DHT22;40172;53.022;7.012;2023-07-29T14:38:49;23.20;99.90
54260;DHT22;40172;53.022;7.012;2023-07-29T14:41:15;23.20;99.90
54260;DHT22;40172;53.022;7.012;2023-07-29T14:43:40;23.00;99.90
54260;DHT22;40172;53.022;7.012;2023-07-29T14:46:06;23.00;99.90
54260;DHT22;40172;53.022;7.012;2023-07-29T14:48:32;22.90;99.90
54260;DHT22;40172;53.022;7.012;2023-07-29T14:50:57;22.70;99.90
54260;DHT22;40172;53.022;7.012;2023-07-29T14:53:23;22.60;99.90
54260;DHT22;40172;53.022;7.012;2023-07-29T14:55:49;22.50;99.90
54260;DHT22;40172;53.022;7.012;2023-07-29T14:58:15;22.50;99.90
54260;DHT22;40172;53.022;7.012;2023-07-29T15:00:41;22.50;99.90
54260;DHT22;40172;53.022;7.012;2023-07-29T15:03:07;22.50;99.90
54260;DHT22;40172;53.022;7.012;2023-07-29T15:05:33;22.60;99.90
54260;DHT22;40172;53.022;7.012;2023-07-29T15:07:58;22.60;99.90
54260;DHT22;40172;53.022;7.012;2023-07-29T15:10:24;22.60;99.90
54260;DHT22;40172;53.022;7.012;2023-07-29T15:12:49;22.50;99.90
54260;DHT22;40172;53.022;7.012;2023-07-29T15:15:15;22.50;99.90
54260;DHT22;40172;53.022;7.012;2023-07-29T15:17:41;22.50;99.90
54260;DHT22;40172;53.022;7.012;2023-07-29T15:20:06;22.60;99.90
54260;DHT22;40172;53.022;7.012;2023-07-29T15:22:33;22.80;99.90
54260;DHT22;40172;53.022;7.012;2023-07-29T15:24:58;23.00;99.90
54260;DHT22;40172;53.022;7.012;2023-07-29T15:27:28;22.70;99.90
54260;DHT22;40172;53.022;7.012;2023-07-29T15:29:53;22.50;99.90
54260;DHT22;40172;53.022;7.012;2023-07-29T15:32:19;22.50;99.90
54260;DHT22;40172;53.022;7.012;2023-07-29T15:34:46;22.40;99.90
54260;DHT22;40172;53.022;7.012;2023-07-29T15:37:17;22.40;99.90